createdAt,value
2022-12-24T00:01:36.665Z,4.28
2022-12-24T00:04:06.731Z,6.15
2022-12-24T00:06:35.387Z,5.25
2022-12-24T00:09:04.549Z,5.47
2022-12-24T00:11:32.971Z,4.40
2022-12-24T00:14:01.428Z,5.85
2022-12-24T00:16:30.174Z,3.85
2022-12-24T00:18:58.759Z,4.82
2022-12-24T00:21:28.613Z,6.80
2022-12-24T00:23:56.919Z,5.47
2022-12-24T00:26:25.324Z,4.43
2022-12-24T00:28:53.684Z,6.13
2022-12-24T00:31:22.095Z,5.88
2022-12-24T00:33:51.413Z,4.82
2022-12-24T00:36:20.949Z,6.47
2022-12-24T00:38:51.380Z,5.60
2022-12-24T00:41:26.254Z,6.53
2022-12-24T00:43:55.572Z,7.00
2022-12-24T00:46:24.497Z,9.63
2022-12-24T00:48:53.103Z,10.57
2022-12-24T00:51:22.665Z,4.00
2022-12-24T00:53:53.366Z,9.07
2022-12-24T00:56:22.053Z,5.05
2022-12-24T00:58:50.949Z,5.35
2022-12-24T01:01:19.875Z,5.82
2022-12-24T01:03:48.692Z,7.40
2022-12-24T01:06:18.516Z,3.92
2022-12-24T01:08:47.109Z,5.50
2022-12-24T01:11:17.201Z,5.10
2022-12-24T01:13:45.698Z,4.75
2022-12-24T01:16:19.244Z,5.22
2022-12-24T01:18:47.844Z,5.20
2022-12-24T01:21:16.686Z,5.93
2022-12-24T01:23:45.649Z,5.20
2022-12-24T01:26:14.179Z,4.93
2022-12-24T01:28:44.275Z,8.00
2022-12-24T01:31:14.325Z,5.72
2022-12-24T01:33:43.289Z,6.30
2022-12-24T01:36:12.349Z,4.45
2022-12-24T01:38:41.255Z,6.70
2022-12-24T01:41:32.255Z,4.93
2022-12-24T01:44:20.946Z,9.40
2022-12-24T01:46:51.759Z,7.05
2022-12-24T01:49:20.651Z,7.18
2022-12-24T01:51:53.434Z,7.40
2022-12-24T01:54:25.737Z,6.50
2022-12-24T01:56:57.298Z,8.45
2022-12-24T01:59:27.465Z,8.80
2022-12-24T02:01:56.418Z,5.35
2022-12-24T02:04:33.665Z,7.00
2022-12-24T02:07:02.400Z,5.55
2022-12-24T02:09:31.396Z,6.28
2022-12-24T02:12:00.753Z,7.78
2022-12-24T02:14:32.500Z,8.38
2022-12-24T02:17:07.065Z,7.00
2022-12-24T02:20:10.309Z,7.38
2022-12-24T02:23:00.009Z,6.57
2022-12-24T02:25:45.512Z,6.65
2022-12-24T02:28:27.078Z,6.38
2022-12-24T02:31:02.108Z,9.00
2022-12-24T02:33:34.596Z,6.72
2022-12-24T02:36:08.176Z,5.45
2022-12-24T02:38:42.927Z,7.13
2022-12-24T02:41:18.213Z,10.15
2022-12-24T02:43:48.826Z,4.85
2022-12-24T02:46:22.539Z,8.57
2022-12-24T02:51:24.244Z,3.30
2022-12-24T02:53:53.187Z,6.25
2022-12-24T02:56:47.442Z,8.70
2022-12-24T03:02:11.391Z,6.90
2022-12-24T03:04:50.094Z,8.60
2022-12-24T03:07:22.191Z,7.50
2022-12-24T03:10:04.862Z,9.40
2022-12-24T03:12:37.523Z,10.00
2022-12-24T03:15:08.628Z,9.13
2022-12-24T03:17:40.788Z,6.28
2022-12-24T03:20:12.442Z,7.68
2022-12-24T03:22:41.520Z,7.15
2022-12-24T03:25:10.335Z,7.15
2022-12-24T03:27:40.418Z,6.32
2022-12-24T03:30:14.466Z,6.03
2022-12-24T03:32:44.332Z,7.32
2022-12-24T03:35:13.157Z,9.13
2022-12-24T03:37:41.935Z,5.50
2022-12-24T03:40:11.233Z,7.38
2022-12-24T03:42:39.624Z,7.32
2022-12-24T03:45:09.076Z,7.45
2022-12-24T03:47:37.873Z,7.25
2022-12-24T03:50:09.123Z,6.53
2022-12-24T03:52:37.791Z,8.00
2022-12-24T03:55:06.934Z,8.93
2022-12-24T03:57:35.266Z,8.82
2022-12-24T04:00:03.809Z,5.75
2022-12-24T04:02:32.452Z,7.82
2022-12-24T04:05:00.931Z,7.40
2022-12-24T04:07:30.786Z,8.98
2022-12-24T04:09:59.104Z,6.38
2022-12-24T04:12:27.646Z,5.55
2022-12-24T04:14:55.946Z,5.55
2022-12-24T04:17:24.261Z,5.97
2022-12-24T04:19:52.537Z,7.68
2022-12-24T04:22:20.846Z,11.10
2022-12-24T04:24:50.586Z,7.55
2022-12-24T04:27:19.499Z,8.50
2022-12-24T04:29:47.958Z,9.88
2022-12-24T04:32:16.349Z,5.03
2022-12-24T04:34:44.764Z,8.07
2022-12-24T04:37:13.247Z,6.60
2022-12-24T04:39:41.676Z,8.15
2022-12-24T04:42:12.566Z,6.60
2022-12-24T04:44:40.925Z,6.60
2022-12-24T04:47:10.876Z,9.38
2022-12-24T04:49:39.973Z,6.57
2022-12-24T04:52:08.369Z,6.22
2022-12-24T04:54:37.096Z,8.32
2022-12-24T04:57:05.601Z,6.03
2022-12-24T04:59:35.587Z,6.18
2022-12-24T05:02:04.259Z,7.97
2022-12-24T05:04:32.802Z,8.80
2022-12-24T05:07:01.085Z,8.40
2022-12-24T05:09:29.561Z,10.55
2022-12-24T05:11:57.872Z,7.50
2022-12-24T05:14:26.270Z,6.43
2022-12-24T05:16:56.195Z,5.07
2022-12-24T05:19:24.640Z,8.90
2022-12-24T05:22:06.805Z,10.57
2022-12-24T05:24:51.776Z,11.07
2022-12-24T05:27:20.210Z,7.50
2022-12-24T05:29:48.552Z,9.35
2022-12-24T05:32:18.340Z,11.02
2022-12-24T05:34:46.661Z,8.32
2022-12-24T05:37:15.135Z,7.93
2022-12-24T05:39:43.497Z,10.30
2022-12-24T05:42:11.860Z,8.68
2022-12-24T05:44:40.230Z,10.50
2022-12-24T05:47:08.476Z,7.90
2022-12-24T05:49:38.283Z,6.53
2022-12-24T05:52:06.717Z,8.13
2022-12-24T05:54:35.099Z,7.22
2022-12-24T05:57:03.700Z,12.80
2022-12-24T05:59:32.302Z,7.93
2022-12-24T06:02:00.827Z,9.23
2022-12-24T06:04:29.706Z,10.35
2022-12-24T06:06:59.797Z,10.93
2022-12-24T06:09:28.248Z,13.18
2022-12-24T06:11:56.536Z,13.25
2022-12-24T06:14:24.929Z,11.95
2022-12-24T06:16:53.658Z,8.65
2022-12-24T06:19:22.141Z,12.93
2022-12-24T06:21:50.404Z,10.50
2022-12-24T06:24:20.195Z,9.52
2022-12-24T06:26:48.444Z,12.60
2022-12-24T06:29:16.843Z,9.13
2022-12-24T06:31:45.265Z,9.75
2022-12-24T06:34:13.604Z,9.93
2022-12-24T06:36:41.963Z,11.40
2022-12-24T06:39:10.255Z,10.98
2022-12-24T06:41:40.190Z,13.48
2022-12-24T06:44:08.494Z,11.93
2022-12-24T06:46:36.871Z,10.07
2022-12-24T06:49:05.329Z,10.32
2022-12-24T06:51:33.999Z,8.95
2022-12-24T06:54:02.413Z,11.10
2022-12-24T06:56:30.812Z,9.32
2022-12-24T06:59:05.363Z,6.38
2022-12-24T07:01:34.191Z,8.52
2022-12-24T07:04:02.604Z,6.13
2022-12-24T07:06:32.211Z,5.93
2022-12-24T07:09:00.757Z,7.65
2022-12-24T07:11:29.232Z,6.97
2022-12-24T07:13:57.677Z,4.97
2022-12-24T07:16:27.578Z,4.80
2022-12-24T07:18:55.898Z,7.15
2022-12-24T07:21:24.300Z,4.57
2022-12-24T07:23:52.585Z,8.13
2022-12-24T07:26:21.086Z,6.22
2022-12-24T07:28:49.563Z,4.40
2022-12-24T07:31:18.010Z,8.32
2022-12-24T07:33:47.879Z,8.60
2022-12-24T07:36:20.931Z,7.00
2022-12-24T07:38:49.394Z,9.35
2022-12-24T07:41:17.811Z,9.07
2022-12-24T07:43:46.192Z,4.85
2022-12-24T07:46:14.808Z,7.70
2022-12-24T07:48:43.266Z,5.70
2022-12-24T07:51:13.001Z,6.05
2022-12-24T07:53:47.748Z,3.35
2022-12-24T07:56:16.505Z,6.88
2022-12-24T07:58:44.935Z,6.35
2022-12-24T08:01:13.592Z,4.75
2022-12-24T08:03:42.141Z,5.78
2022-12-24T08:06:12.986Z,3.65
2022-12-24T08:08:41.289Z,5.53
2022-12-24T08:11:09.929Z,4.95
2022-12-24T08:13:38.548Z,4.13
2022-12-24T08:16:07.742Z,3.80
2022-12-24T08:18:36.240Z,3.47
2022-12-24T08:21:04.917Z,2.80
2022-12-24T08:23:34.767Z,2.85
2022-12-24T08:26:03.390Z,3.25
2022-12-24T08:28:31.736Z,3.80
2022-12-24T08:31:01.106Z,5.45
2022-12-24T08:33:29.544Z,4.00
2022-12-24T08:35:59.173Z,2.90
2022-12-24T08:38:27.484Z,3.58
2022-12-24T08:40:58.123Z,1.88
2022-12-24T08:43:27.081Z,2.97
2022-12-24T08:45:55.630Z,2.38
2022-12-24T08:48:24.083Z,4.47
2022-12-24T08:50:52.555Z,2.75
2022-12-24T08:53:20.895Z,4.60
2022-12-24T08:55:55.759Z,2.33
2022-12-24T08:58:26.301Z,3.30
2022-12-24T09:00:54.836Z,5.13
2022-12-24T09:03:27.298Z,3.78
2022-12-24T09:05:56.732Z,4.25
2022-12-24T09:08:25.066Z,4.50
2022-12-24T09:10:53.624Z,2.42
2022-12-24T09:13:21.990Z,1.70
2022-12-24T09:15:56.992Z,1.60
2022-12-24T09:18:25.625Z,3.00
2022-12-24T09:21:00.308Z,1.77
2022-12-24T09:23:28.785Z,2.75
2022-12-24T09:25:57.574Z,2.10
2022-12-24T09:28:26.211Z,0.73
2022-12-24T09:31:01.029Z,1.98
2022-12-24T09:33:30.334Z,5.65
2022-12-24T09:35:59.652Z,1.15
2022-12-24T09:38:28.381Z,2.80
2022-12-24T09:40:57.507Z,4.13
2022-12-24T09:43:27.662Z,5.10
2022-12-24T09:46:10.037Z,2.30
2022-12-24T09:48:43.249Z,3.13
2022-12-24T09:51:13.537Z,6.00
2022-12-24T09:53:49.845Z,3.97
2022-12-24T09:56:22.705Z,5.45
2022-12-24T09:58:56.169Z,5.47
2022-12-24T10:01:26.767Z,4.28
2022-12-24T10:03:55.395Z,2.97
2022-12-24T10:06:29.443Z,2.03
2022-12-24T10:09:09.052Z,3.50
2022-12-24T10:11:48.088Z,2.22
2022-12-24T10:14:40.734Z,2.50
2022-12-24T10:17:28.139Z,2.83
2022-12-24T10:20:21.478Z,4.10
2022-12-24T10:22:57.394Z,7.00
2022-12-24T10:25:30.919Z,5.53
2022-12-24T10:28:02.801Z,5.82
2022-12-24T10:30:32.045Z,4.88
2022-12-24T10:33:02.181Z,4.75
2022-12-24T10:35:33.842Z,7.13
2022-12-24T10:38:02.323Z,5.63
2022-12-24T10:40:36.922Z,4.10
2022-12-24T10:43:15.379Z,6.35
2022-12-24T10:45:48.090Z,5.00
2022-12-24T10:48:25.520Z,9.98
2022-12-24T10:50:58.151Z,6.68
2022-12-24T10:53:35.505Z,8.00
2022-12-24T10:56:06.574Z,7.10
2022-12-24T10:58:35.919Z,6.15
2022-12-24T11:01:05.769Z,5.97
2022-12-24T11:03:38.265Z,5.80
2022-12-24T11:06:10.358Z,5.13
2022-12-24T11:08:41.075Z,5.85
2022-12-24T11:11:11.377Z,5.82
2022-12-24T11:13:42.293Z,6.30
2022-12-24T11:16:20.107Z,6.22
2022-12-24T11:18:52.582Z,5.80
2022-12-24T11:21:24.577Z,4.45
2022-12-24T11:23:56.736Z,5.82
2022-12-24T11:26:27.136Z,5.05
2022-12-24T11:29:13.539Z,5.03
2022-12-24T11:31:43.009Z,6.70
2022-12-24T11:34:29.810Z,5.57
2022-12-24T11:37:14.975Z,7.13
2022-12-24T11:39:49.052Z,7.38
2022-12-24T11:45:09.131Z,7.03
2022-12-24T11:47:39.289Z,32.95
2022-12-24T11:50:30.500Z,6.05
2022-12-24T11:53:07.118Z,5.88
2022-12-24T11:55:46.405Z,6.32
2022-12-24T11:58:24.162Z,6.22
2022-12-24T12:00:54.141Z,6.07
2022-12-24T12:03:33.992Z,9.13
2022-12-24T12:06:08.868Z,7.40
2022-12-24T12:08:39.009Z,9.57
2022-12-24T12:11:13.515Z,8.45
2022-12-24T12:13:45.352Z,5.88
2022-12-24T12:16:21.888Z,9.52
2022-12-24T12:18:57.178Z,9.20
2022-12-24T12:21:39.765Z,7.55
2022-12-24T12:24:14.395Z,9.80
2022-12-24T12:26:44.397Z,8.60
2022-12-24T12:29:27.002Z,8.25
2022-12-24T12:31:58.990Z,9.73
2022-12-24T12:34:34.351Z,10.02
2022-12-24T12:37:14.483Z,10.45
2022-12-24T12:39:43.954Z,11.93
2022-12-24T12:42:19.569Z,9.10
2022-12-24T12:45:01.672Z,10.00
2022-12-24T12:48:02.307Z,8.38
2022-12-24T12:50:34.907Z,9.95
2022-12-24T12:53:32.086Z,8.75
2022-12-24T12:56:11.429Z,13.60
2022-12-24T12:58:45.340Z,9.65
2022-12-24T13:01:23.092Z,9.15
2022-12-24T13:04:33.774Z,6.82
2022-12-24T13:07:38.056Z,10.73
2022-12-24T13:10:53.014Z,7.93
2022-12-24T13:13:50.184Z,8.75
2022-12-24T13:16:49.293Z,11.00
2022-12-24T13:19:38.278Z,6.55
2022-12-24T13:22:15.619Z,11.27
2022-12-24T13:24:52.377Z,8.23
2022-12-24T13:27:27.650Z,11.70
2022-12-24T13:30:02.199Z,9.02
2022-12-24T13:32:49.931Z,8.88
2022-12-24T13:35:38.961Z,6.38
2022-12-24T13:38:46.153Z,8.10
2022-12-24T13:41:41.816Z,4.90
2022-12-24T13:44:36.252Z,6.72
2022-12-24T13:47:31.595Z,6.47
2022-12-24T13:50:22.019Z,8.20
2022-12-24T13:52:53.646Z,9.90
2022-12-24T13:55:22.867Z,9.85
2022-12-24T13:58:00.202Z,6.22
2022-12-24T14:00:39.269Z,5.45
2022-12-24T14:03:20.394Z,6.47
2022-12-24T14:05:51.993Z,8.13
2022-12-24T14:08:31.282Z,7.72
2022-12-24T14:11:06.124Z,5.97
2022-12-24T14:14:10.029Z,12.40
2022-12-24T14:16:48.222Z,23.05
2022-12-24T14:19:20.573Z,14.35
2022-12-24T14:21:56.897Z,24.23
2022-12-24T14:24:28.544Z,11.77
2022-12-24T14:27:02.118Z,6.40
2022-12-24T14:29:33.663Z,15.38
2022-12-24T14:32:04.902Z,23.23
2022-12-24T14:34:33.745Z,5.85
2022-12-24T14:37:05.984Z,4.30
2022-12-24T14:39:37.384Z,4.15
2022-12-24T14:42:19.736Z,12.30
2022-12-24T14:44:57.629Z,7.03
2022-12-24T14:47:36.054Z,4.35
2022-12-24T14:50:30.095Z,4.70
2022-12-24T14:53:06.404Z,4.65
2022-12-24T14:55:41.848Z,3.75
2022-12-24T14:58:24.291Z,8.77
2022-12-24T15:00:53.791Z,3.75
2022-12-24T15:03:26.168Z,8.68
2022-12-24T15:05:56.847Z,5.45
2022-12-24T15:08:32.313Z,7.85
2022-12-24T15:11:07.445Z,5.90
2022-12-24T15:13:38.468Z,5.72
2022-12-24T15:16:09.963Z,5.43
2022-12-24T15:18:44.944Z,6.22
2022-12-24T15:21:19.937Z,10.23
2022-12-24T15:23:50.387Z,11.35
2022-12-24T15:26:25.126Z,11.27
2022-12-24T15:29:01.965Z,11.85
2022-12-24T15:31:32.432Z,9.25
2022-12-24T15:34:02.338Z,9.07
2022-12-24T15:36:34.344Z,11.88
2022-12-24T15:39:07.198Z,12.90
2022-12-24T15:42:00.705Z,10.63
2022-12-24T15:44:30.091Z,9.13
2022-12-24T15:47:01.530Z,7.32
2022-12-24T15:49:34.169Z,11.18
2022-12-24T15:52:07.790Z,9.65
2022-12-24T15:54:36.342Z,16.50
2022-12-24T15:57:15.541Z,10.95
2022-12-24T15:59:44.287Z,11.63
2022-12-24T16:02:41.828Z,11.95
2022-12-24T16:05:32.725Z,13.18
2022-12-24T16:08:17.074Z,12.75
2022-12-24T16:10:48.672Z,13.60
2022-12-24T16:13:20.605Z,11.88
2022-12-24T16:15:54.687Z,14.25
2022-12-24T16:18:28.680Z,14.48
2022-12-24T16:20:58.830Z,11.35
2022-12-24T16:23:31.075Z,16.50
2022-12-24T16:26:00.740Z,12.52
2022-12-24T16:28:29.142Z,15.82
2022-12-24T16:30:58.176Z,16.05
2022-12-24T16:33:26.637Z,10.93
2022-12-24T16:35:55.251Z,10.05
2022-12-24T16:38:25.500Z,13.57
2022-12-24T16:40:53.869Z,14.88
2022-12-24T16:43:39.636Z,17.95
2022-12-24T16:46:09.234Z,17.58
2022-12-24T16:48:39.429Z,10.73
2022-12-24T16:51:07.798Z,10.88
2022-12-24T16:53:37.823Z,12.18
2022-12-24T16:56:07.551Z,13.40
2022-12-24T16:58:36.827Z,9.75
2022-12-24T17:01:10.423Z,18.23
2022-12-24T17:06:09.506Z,11.50
2022-12-24T17:08:39.357Z,10.38
2022-12-24T17:11:07.739Z,13.10
2022-12-24T17:13:36.056Z,15.30
2022-12-24T17:16:04.868Z,14.65
2022-12-24T17:18:33.235Z,8.93
2022-12-24T17:21:02.596Z,12.43
2022-12-24T17:23:31.361Z,10.70
2022-12-24T17:26:01.306Z,13.77
2022-12-24T17:28:29.705Z,11.05
2022-12-24T17:30:59.179Z,13.07
2022-12-24T17:33:27.856Z,16.80
2022-12-24T17:35:56.236Z,36.95
2022-12-24T17:38:24.561Z,24.20
2022-12-24T17:40:53.000Z,17.42
2022-12-24T17:43:22.890Z,10.20
2022-12-24T17:45:51.162Z,10.32
2022-12-24T17:48:19.539Z,16.17
2022-12-24T17:50:47.864Z,13.10
2022-12-24T17:53:16.324Z,13.27
2022-12-24T17:55:45.157Z,15.07
2022-12-24T17:58:15.303Z,7.03
2022-12-24T18:00:47.399Z,12.48
2022-12-24T18:03:15.841Z,11.23
2022-12-24T18:05:44.341Z,10.18
2022-12-24T18:08:12.762Z,14.30
2022-12-24T18:10:41.287Z,9.05
2022-12-24T18:13:15.710Z,8.07
2022-12-24T18:15:49.127Z,11.18
2022-12-24T18:18:17.681Z,15.40
2022-12-24T18:20:47.110Z,7.72
2022-12-24T18:23:15.645Z,9.98
2022-12-24T18:25:44.078Z,7.93
2022-12-24T18:28:12.413Z,7.80
2022-12-24T18:30:42.261Z,7.13
2022-12-24T18:33:12.197Z,6.82
2022-12-24T18:35:40.484Z,10.45
2022-12-24T18:38:08.867Z,8.70
2022-12-24T18:40:38.496Z,6.30
2022-12-24T18:43:06.874Z,6.80
2022-12-24T18:45:35.338Z,10.90
2022-12-24T18:48:04.035Z,9.15
2022-12-24T18:50:33.728Z,9.18
2022-12-24T18:53:02.298Z,9.15
2022-12-24T18:55:30.689Z,10.57
2022-12-24T18:57:59.213Z,10.45
2022-12-24T19:00:27.642Z,11.50
2022-12-24T19:02:56.163Z,11.38
2022-12-24T19:05:24.471Z,6.90
2022-12-24T19:07:54.463Z,9.80
2022-12-24T19:10:22.855Z,7.28
2022-12-24T19:12:51.505Z,8.38
2022-12-24T19:15:20.066Z,9.60
2022-12-24T19:17:48.447Z,5.93
2022-12-24T19:20:17.022Z,6.32
2022-12-24T19:22:45.442Z,7.90
2022-12-24T19:25:15.316Z,7.97
2022-12-24T19:27:43.624Z,9.35
2022-12-24T19:30:13.530Z,7.47
2022-12-24T19:32:41.906Z,8.13
2022-12-24T19:35:10.960Z,7.05
2022-12-24T19:37:39.465Z,10.93
2022-12-24T19:40:09.746Z,9.35
2022-12-24T19:42:39.566Z,6.75
2022-12-24T19:45:08.814Z,8.55
2022-12-24T19:47:37.097Z,7.90
2022-12-24T19:50:06.150Z,8.65
2022-12-24T19:52:34.586Z,11.48
2022-12-24T19:55:02.853Z,8.38
2022-12-24T19:57:31.208Z,12.32
2022-12-24T20:00:00.914Z,7.70
2022-12-24T20:02:29.617Z,7.63
2022-12-24T20:04:58.193Z,9.90
2022-12-24T20:07:26.707Z,5.57
2022-12-24T20:09:55.161Z,9.27
2022-12-24T20:12:23.650Z,11.52
2022-12-24T20:14:51.920Z,9.43
2022-12-24T20:17:21.868Z,11.32
2022-12-24T20:19:50.144Z,6.57
2022-12-24T20:22:18.540Z,8.25
2022-12-24T20:24:46.856Z,10.13
2022-12-24T20:27:15.198Z,7.43
2022-12-24T20:29:43.495Z,13.38
2022-12-24T20:32:12.329Z,14.98
2022-12-24T20:34:42.111Z,11.85
2022-12-24T20:37:10.510Z,12.40
2022-12-24T20:39:38.977Z,14.93
2022-12-24T20:42:07.480Z,11.90
2022-12-24T20:44:35.795Z,11.52
2022-12-24T20:47:04.210Z,16.60
2022-12-24T20:49:32.540Z,11.27
2022-12-24T20:52:02.300Z,9.43
2022-12-24T20:54:30.595Z,8.38
2022-12-24T20:56:59.212Z,10.55
2022-12-24T20:59:27.622Z,10.88
2022-12-24T21:01:56.210Z,9.75
2022-12-24T21:04:24.708Z,6.80
2022-12-24T21:06:53.194Z,9.32
2022-12-24T21:09:22.919Z,8.75
2022-12-24T21:12:08.397Z,14.60
2022-12-24T21:14:36.732Z,19.30
2022-12-24T21:17:06.556Z,12.05
2022-12-24T21:19:36.657Z,11.45
2022-12-24T21:22:05.000Z,11.07
2022-12-24T21:24:35.019Z,9.95
2022-12-24T21:27:03.360Z,9.90
2022-12-24T21:29:31.597Z,13.88
2022-12-24T21:31:59.963Z,12.82
2022-12-24T21:34:28.330Z,15.38
2022-12-24T21:36:56.665Z,11.25
2022-12-24T21:39:25.124Z,10.52
2022-12-24T21:41:54.911Z,10.15
2022-12-24T21:44:23.283Z,11.48
2022-12-24T21:46:51.620Z,14.95
2022-12-24T21:49:37.035Z,11.63
2022-12-24T21:52:06.022Z,13.07
2022-12-24T21:54:33.357Z,10.68
2022-12-24T21:57:23.240Z,13.38
2022-12-24T21:59:53.677Z,16.92
2022-12-24T22:02:26.810Z,10.45
2022-12-24T22:04:55.643Z,9.15
2022-12-24T22:07:40.397Z,13.70
2022-12-24T22:10:27.285Z,12.20
2022-12-24T22:12:57.589Z,10.15
2022-12-24T22:15:26.003Z,14.73
2022-12-24T22:17:54.481Z,11.70
2022-12-24T22:20:22.893Z,9.23
2022-12-24T22:22:51.411Z,14.80
2022-12-24T22:25:19.872Z,10.85
2022-12-24T22:27:48.331Z,15.20
2022-12-24T22:30:18.103Z,11.00
2022-12-24T22:32:46.446Z,11.35
2022-12-24T22:35:14.960Z,10.88
2022-12-24T22:37:43.296Z,14.95
2022-12-24T22:40:12.468Z,8.20
2022-12-24T22:42:41.554Z,11.18
2022-12-24T22:45:15.676Z,11.95
2022-12-24T22:47:48.550Z,13.43
2022-12-24T22:50:16.955Z,6.50
2022-12-24T22:52:45.365Z,11.88
2022-12-24T22:55:13.736Z,8.43
2022-12-24T22:57:42.068Z,10.30
2022-12-24T23:00:15.506Z,12.07
2022-12-24T23:02:44.656Z,8.07
2022-12-24T23:05:16.365Z,10.52
2022-12-24T23:07:44.814Z,10.38
2022-12-24T23:10:13.106Z,9.52
2022-12-24T23:12:58.540Z,9.35
2022-12-24T23:15:26.951Z,9.38
2022-12-24T23:17:55.292Z,10.80
2022-12-24T23:20:24.965Z,11.02
2022-12-24T23:22:53.419Z,13.13
2022-12-24T23:25:21.685Z,10.23
2022-12-24T23:27:50.257Z,9.65
2022-12-24T23:30:18.714Z,9.82
2022-12-24T23:32:47.260Z,12.82
2022-12-24T23:35:15.589Z,9.98
2022-12-24T23:37:45.433Z,13.48
2022-12-24T23:40:16.396Z,6.68
2022-12-24T23:42:44.745Z,9.85
2022-12-24T23:45:13.529Z,10.20
2022-12-24T23:47:41.919Z,9.65
2022-12-24T23:50:11.864Z,9.65
2022-12-24T23:52:40.276Z,9.23
2022-12-24T23:55:10.364Z,7.88
2022-12-24T23:57:38.857Z,12.55
